sensor_id;sensor_type;location;lat;lon;timestamp;P1;durP1;ratioP1;P2;durP2;ratioP2
33505;SDS011;19843;51.040;13.782;2022-11-04T00:01:24;0.50;;;0.50;;
33505;SDS011;19843;51.040;13.782;2022-11-04T00:03:52;0.50;;;0.50;;
33505;SDS011;19843;51.040;13.782;2022-11-04T00:06:20;0.50;;;0.50;;
33505;SDS011;19843;51.040;13.782;2022-11-04T00:08:49;0.57;;;0.57;;
33505;SDS011;19843;51.040;13.782;2022-11-04T00:11:17;0.50;;;0.50;;
33505;SDS011;19843;51.040;13.782;2022-11-04T00:14:03;0.60;;;0.60;;
33505;SDS011;19843;51.040;13.782;2022-11-04T00:16:31;0.50;;;0.50;;
33505;SDS011;19843;51.040;13.782;2022-11-04T00:19:16;0.60;;;0.60;;
33505;SDS011;19843;51.040;13.782;2022-11-04T00:21:44;0.57;;;0.57;;
33505;SDS011;19843;51.040;13.782;2022-11-04T00:24:30;0.70;;;0.70;;
33505;SDS011;19843;51.040;13.782;2022-11-04T00:27:16;0.50;;;0.50;;
33505;SDS011;19843;51.040;13.782;2022-11-04T00:30:03;0.60;;;0.60;;
33505;SDS011;19843;51.040;13.782;2022-11-04T00:32:33;0.57;;;0.57;;
33505;SDS011;19843;51.040;13.782;2022-11-04T00:35:19;0.60;;;0.60;;
33505;SDS011;19843;51.040;13.782;2022-11-04T00:37:46;0.60;;;0.60;;
33505;SDS011;19843;51.040;13.782;2022-11-04T00:40:15;0.60;;;0.60;;
33505;SDS011;19843;51.040;13.782;2022-11-04T00:42:43;0.60;;;0.60;;
33505;SDS011;19843;51.040;13.782;2022-11-04T00:45:12;0.50;;;0.50;;
33505;SDS011;19843;51.040;13.782;2022-11-04T00:47:39;0.60;;;0.60;;
33505;SDS011;19843;51.040;13.782;2022-11-04T00:50:07;0.60;;;0.60;;
33505;SDS011;19843;51.040;13.782;2022-11-04T00:52:35;0.60;;;0.60;;
33505;SDS011;19843;51.040;13.782;2022-11-04T00:55:03;0.50;;;0.50;;
33505;SDS011;19843;51.040;13.782;2022-11-04T00:57:32;0.50;;;0.50;;
33505;SDS011;19843;51.040;13.782;2022-11-04T00:59:59;0.50;;;0.50;;
33505;SDS011;19843;51.040;13.782;2022-11-04T01:02:27;0.60;;;0.60;;
33505;SDS011;19843;51.040;13.782;2022-11-04T01:04:55;0.57;;;0.57;;
33505;SDS011;19843;51.040;13.782;2022-11-04T01:07:22;0.70;;;0.70;;
33505;SDS011;19843;51.040;13.782;2022-11-04T01:09:50;0.60;;;0.60;;
33505;SDS011;19843;51.040;13.782;2022-11-04T01:12:17;0.50;;;0.50;;
33505;SDS011;19843;51.040;13.782;2022-11-04T01:14:46;0.60;;;0.60;;
33505;SDS011;19843;51.040;13.782;2022-11-04T01:17:14;0.63;;;0.63;;
33505;SDS011;19843;51.040;13.782;2022-11-04T01:19:42;0.50;;;0.50;;
33505;SDS011;19843;51.040;13.782;2022-11-04T01:22:10;0.55;;;0.55;;
33505;SDS011;19843;51.040;13.782;2022-11-04T01:24:37;0.60;;;0.60;;
33505;SDS011;19843;51.040;13.782;2022-11-04T01:27:04;0.50;;;0.50;;
33505;SDS011;19843;51.040;13.782;2022-11-04T01:29:32;0.60;;;0.60;;
33505;SDS011;19843;51.040;13.782;2022-11-04T01:32:01;0.60;;;0.60;;
33505;SDS011;19843;51.040;13.782;2022-11-04T01:34:28;0.60;;;0.60;;
33505;SDS011;19843;51.040;13.782;2022-11-04T01:36:56;0.55;;;0.55;;
33505;SDS011;19843;51.040;13.782;2022-11-04T01:39:24;0.55;;;0.55;;
33505;SDS011;19843;51.040;13.782;2022-11-04T01:41:52;0.95;;;0.60;;
33505;SDS011;19843;51.040;13.782;2022-11-04T01:47:15;0.70;;;0.70;;
33505;SDS011;19843;51.040;13.782;2022-11-04T01:49:45;0.60;;;0.60;;
33505;SDS011;19843;51.040;13.782;2022-11-04T01:52:15;0.63;;;0.63;;
33505;SDS011;19843;51.040;13.782;2022-11-04T01:54:47;0.60;;;0.60;;
33505;SDS011;19843;51.040;13.782;2022-11-04T01:57:20;0.70;;;0.70;;
33505;SDS011;19843;51.040;13.782;2022-11-04T01:59:51;0.60;;;0.60;;
33505;SDS011;19843;51.040;13.782;2022-11-04T02:02:20;0.50;;;0.50;;
33505;SDS011;19843;51.040;13.782;2022-11-04T02:04:48;0.50;;;0.50;;
33505;SDS011;19843;51.040;13.782;2022-11-04T02:07:16;0.60;;;0.60;;
33505;SDS011;19843;51.040;13.782;2022-11-04T02:09:43;0.60;;;0.60;;
33505;SDS011;19843;51.040;13.782;2022-11-04T02:12:11;0.60;;;0.60;;
33505;SDS011;19843;51.040;13.782;2022-11-04T02:14:56;0.60;;;0.60;;
33505;SDS011;19843;51.040;13.782;2022-11-04T02:17:30;0.60;;;0.60;;
33505;SDS011;19843;51.040;13.782;2022-11-04T02:26:24;0.70;;;0.70;;
33505;SDS011;19843;51.040;13.782;2022-11-04T02:29:24;0.57;;;0.57;;
33505;SDS011;19843;51.040;13.782;2022-11-04T02:32:01;0.73;;;0.70;;
33505;SDS011;19843;51.040;13.782;2022-11-04T02:34:39;0.70;;;0.70;;
33505;SDS011;19843;51.040;13.782;2022-11-04T02:37:19;0.70;;;0.70;;
33505;SDS011;19843;51.040;13.782;2022-11-04T02:39:55;0.63;;;0.63;;
33505;SDS011;19843;51.040;13.782;2022-11-04T02:42:33;0.60;;;0.60;;
33505;SDS011;19843;51.040;13.782;2022-11-04T02:45:10;0.60;;;0.60;;
33505;SDS011;19843;51.040;13.782;2022-11-04T02:47:44;0.60;;;0.60;;
33505;SDS011;19843;51.040;13.782;2022-11-04T02:50:23;0.60;;;0.60;;
33505;SDS011;19843;51.040;13.782;2022-11-04T02:52:56;0.77;;;0.77;;
33505;SDS011;19843;51.040;13.782;2022-11-04T02:55:29;0.63;;;0.63;;
33505;SDS011;19843;51.040;13.782;2022-11-04T02:58:01;0.70;;;0.70;;
33505;SDS011;19843;51.040;13.782;2022-11-04T03:00:34;0.70;;;0.70;;
33505;SDS011;19843;51.040;13.782;2022-11-04T03:03:06;0.70;;;0.70;;
33505;SDS011;19843;51.040;13.782;2022-11-04T03:05:37;0.70;;;0.70;;
33505;SDS011;19843;51.040;13.782;2022-11-04T03:08:09;0.50;;;0.50;;
33505;SDS011;19843;51.040;13.782;2022-11-04T03:10:42;0.70;;;0.70;;
33505;SDS011;19843;51.040;13.782;2022-11-04T03:13:12;0.70;;;0.70;;
33505;SDS011;19843;51.040;13.782;2022-11-04T03:15:47;0.57;;;0.57;;
33505;SDS011;19843;51.040;13.782;2022-11-04T03:18:18;0.60;;;0.60;;
33505;SDS011;19843;51.040;13.782;2022-11-04T03:20:51;0.60;;;0.60;;
33505;SDS011;19843;51.040;13.782;2022-11-04T03:23:22;0.93;;;0.70;;
33505;SDS011;19843;51.040;13.782;2022-11-04T03:25:50;0.60;;;0.60;;
33505;SDS011;19843;51.040;13.782;2022-11-04T03:28:26;0.70;;;0.70;;
33505;SDS011;19843;51.040;13.782;2022-11-04T03:31:05;0.70;;;0.70;;
33505;SDS011;19843;51.040;13.782;2022-11-04T03:33:38;0.70;;;0.70;;
33505;SDS011;19843;51.040;13.782;2022-11-04T03:36:09;0.60;;;0.60;;
33505;SDS011;19843;51.040;13.782;2022-11-04T03:38:37;0.60;;;0.60;;
33505;SDS011;19843;51.040;13.782;2022-11-04T03:41:06;0.60;;;0.60;;
33505;SDS011;19843;51.040;13.782;2022-11-04T03:43:37;0.50;;;0.50;;
33505;SDS011;19843;51.040;13.782;2022-11-04T03:46:09;0.60;;;0.60;;
33505;SDS011;19843;51.040;13.782;2022-11-04T03:48:36;0.82;;;0.60;;
33505;SDS011;19843;51.040;13.782;2022-11-04T03:51:05;0.57;;;0.57;;
33505;SDS011;19843;51.040;13.782;2022-11-04T03:53:32;0.70;;;0.70;;
33505;SDS011;19843;51.040;13.782;2022-11-04T03:56:03;0.60;;;0.60;;
33505;SDS011;19843;51.040;13.782;2022-11-04T03:58:47;0.50;;;0.50;;
33505;SDS011;19843;51.040;13.782;2022-11-04T04:01:32;0.80;;;0.80;;
33505;SDS011;19843;51.040;13.782;2022-11-04T04:04:12;0.70;;;0.70;;
33505;SDS011;19843;51.040;13.782;2022-11-04T04:06:42;0.60;;;0.60;;
33505;SDS011;19843;51.040;13.782;2022-11-04T04:09:14;0.60;;;0.60;;
33505;SDS011;19843;51.040;13.782;2022-11-04T04:11:49;0.60;;;0.60;;
33505;SDS011;19843;51.040;13.782;2022-11-04T04:14:21;0.68;;;0.68;;
33505;SDS011;19843;51.040;13.782;2022-11-04T04:17:08;0.60;;;0.60;;
33505;SDS011;19843;51.040;13.782;2022-11-04T04:19:43;0.80;;;0.80;;
33505;SDS011;19843;51.040;13.782;2022-11-04T04:22:14;0.60;;;0.60;;
33505;SDS011;19843;51.040;13.782;2022-11-04T04:24:45;0.68;;;0.68;;
33505;SDS011;19843;51.040;13.782;2022-11-04T04:27:33;0.60;;;0.60;;
33505;SDS011;19843;51.040;13.782;2022-11-04T04:30:03;0.60;;;0.60;;
33505;SDS011;19843;51.040;13.782;2022-11-04T04:32:35;0.63;;;0.63;;
33505;SDS011;19843;51.040;13.782;2022-11-04T04:35:05;0.60;;;0.60;;
33505;SDS011;19843;51.040;13.782;2022-11-04T04:37:52;0.85;;;0.85;;
33505;SDS011;19843;51.040;13.782;2022-11-04T04:40:41;0.60;;;0.60;;
33505;SDS011;19843;51.040;13.782;2022-11-04T04:43:30;0.70;;;0.70;;
33505;SDS011;19843;51.040;13.782;2022-11-04T04:46:15;0.65;;;0.65;;
33505;SDS011;19843;51.040;13.782;2022-11-04T04:48:44;0.70;;;0.70;;
33505;SDS011;19843;51.040;13.782;2022-11-04T04:51:11;0.70;;;0.70;;
33505;SDS011;19843;51.040;13.782;2022-11-04T04:53:39;0.70;;;0.70;;
33505;SDS011;19843;51.040;13.782;2022-11-04T04:56:07;0.60;;;0.60;;
33505;SDS011;19843;51.040;13.782;2022-11-04T04:58:34;0.82;;;0.82;;
33505;SDS011;19843;51.040;13.782;2022-11-04T05:01:02;0.60;;;0.60;;
33505;SDS011;19843;51.040;13.782;2022-11-04T05:03:30;0.70;;;0.70;;
33505;SDS011;19843;51.040;13.782;2022-11-04T05:05:59;0.60;;;0.60;;
33505;SDS011;19843;51.040;13.782;2022-11-04T05:08:26;0.88;;;0.88;;
33505;SDS011;19843;51.040;13.782;2022-11-04T05:10:54;0.90;;;0.90;;
33505;SDS011;19843;51.040;13.782;2022-11-04T05:13:21;0.80;;;0.80;;
33505;SDS011;19843;51.040;13.782;2022-11-04T05:15:52;0.98;;;0.98;;
33505;SDS011;19843;51.040;13.782;2022-11-04T05:18:19;0.88;;;0.88;;
33505;SDS011;19843;51.040;13.782;2022-11-04T05:20:47;1.23;;;1.20;;
33505;SDS011;19843;51.040;13.782;2022-11-04T05:23:16;1.00;;;1.00;;
33505;SDS011;19843;51.040;13.782;2022-11-04T05:25:43;1.00;;;1.00;;
33505;SDS011;19843;51.040;13.782;2022-11-04T05:28:11;1.08;;;1.08;;
33505;SDS011;19843;51.040;13.782;2022-11-04T05:30:39;1.20;;;1.20;;
33505;SDS011;19843;51.040;13.782;2022-11-04T05:33:06;1.20;;;1.20;;
33505;SDS011;19843;51.040;13.782;2022-11-04T05:35:34;1.20;;;1.20;;
33505;SDS011;19843;51.040;13.782;2022-11-04T05:38:02;1.10;;;1.10;;
33505;SDS011;19843;51.040;13.782;2022-11-04T05:40:30;1.10;;;1.10;;
33505;SDS011;19843;51.040;13.782;2022-11-04T05:42:58;1.10;;;1.10;;
33505;SDS011;19843;51.040;13.782;2022-11-04T05:45:27;1.20;;;1.20;;
33505;SDS011;19843;51.040;13.782;2022-11-04T05:47:56;1.38;;;1.30;;
33505;SDS011;19843;51.040;13.782;2022-11-04T05:50:24;1.05;;;1.05;;
33505;SDS011;19843;51.040;13.782;2022-11-04T05:52:52;1.15;;;1.15;;
33505;SDS011;19843;51.040;13.782;2022-11-04T05:55:19;1.45;;;1.35;;
33505;SDS011;19843;51.040;13.782;2022-11-04T05:57:48;1.33;;;1.30;;
33505;SDS011;19843;51.040;13.782;2022-11-04T06:00:16;1.30;;;1.30;;
33505;SDS011;19843;51.040;13.782;2022-11-04T06:02:44;1.10;;;1.10;;
33505;SDS011;19843;51.040;13.782;2022-11-04T06:05:11;1.20;;;1.15;;
33505;SDS011;19843;51.040;13.782;2022-11-04T06:07:39;1.33;;;1.23;;
33505;SDS011;19843;51.040;13.782;2022-11-04T06:10:07;1.10;;;1.10;;
33505;SDS011;19843;51.040;13.782;2022-11-04T06:12:35;1.10;;;1.10;;
33505;SDS011;19843;51.040;13.782;2022-11-04T06:15:04;1.15;;;1.15;;
33505;SDS011;19843;51.040;13.782;2022-11-04T06:17:32;1.20;;;1.20;;
33505;SDS011;19843;51.040;13.782;2022-11-04T06:20:00;1.05;;;1.05;;
33505;SDS011;19843;51.040;13.782;2022-11-04T06:22:29;1.10;;;1.10;;
33505;SDS011;19843;51.040;13.782;2022-11-04T06:24:57;1.10;;;1.10;;
33505;SDS011;19843;51.040;13.782;2022-11-04T06:27:24;1.10;;;1.10;;
33505;SDS011;19843;51.040;13.782;2022-11-04T06:29:52;1.10;;;1.10;;
33505;SDS011;19843;51.040;13.782;2022-11-04T06:32:21;1.00;;;1.00;;
33505;SDS011;19843;51.040;13.782;2022-11-04T06:34:48;0.90;;;0.90;;
33505;SDS011;19843;51.040;13.782;2022-11-04T06:37:16;1.10;;;1.10;;
33505;SDS011;19843;51.040;13.782;2022-11-04T06:39:43;1.30;;;1.30;;
33505;SDS011;19843;51.040;13.782;2022-11-04T06:42:11;1.20;;;1.20;;
33505;SDS011;19843;51.040;13.782;2022-11-04T06:44:38;1.30;;;1.30;;
33505;SDS011;19843;51.040;13.782;2022-11-04T06:47:07;1.30;;;1.30;;
33505;SDS011;19843;51.040;13.782;2022-11-04T06:49:37;1.50;;;1.40;;
33505;SDS011;19843;51.040;13.782;2022-11-04T06:52:05;1.10;;;1.10;;
33505;SDS011;19843;51.040;13.782;2022-11-04T06:54:32;1.10;;;1.10;;
33505;SDS011;19843;51.040;13.782;2022-11-04T06:57:03;1.08;;;1.08;;
33505;SDS011;19843;51.040;13.782;2022-11-04T06:59:30;0.93;;;0.93;;
33505;SDS011;19843;51.040;13.782;2022-11-04T07:01:58;1.10;;;1.10;;
33505;SDS011;19843;51.040;13.782;2022-11-04T07:04:26;1.00;;;1.00;;
33505;SDS011;19843;51.040;13.782;2022-11-04T07:06:55;1.08;;;1.08;;
33505;SDS011;19843;51.040;13.782;2022-11-04T07:09:22;1.00;;;1.00;;
33505;SDS011;19843;51.040;13.782;2022-11-04T07:11:50;0.95;;;0.95;;
33505;SDS011;19843;51.040;13.782;2022-11-04T07:14:17;1.10;;;1.10;;
33505;SDS011;19843;51.040;13.782;2022-11-04T07:16:48;1.08;;;1.08;;
33505;SDS011;19843;51.040;13.782;2022-11-04T07:19:16;0.95;;;0.95;;
33505;SDS011;19843;51.040;13.782;2022-11-04T07:21:43;0.95;;;0.95;;
33505;SDS011;19843;51.040;13.782;2022-11-04T07:24:12;0.90;;;0.90;;
33505;SDS011;19843;51.040;13.782;2022-11-04T07:26:40;0.82;;;0.82;;
33505;SDS011;19843;51.040;13.782;2022-11-04T07:29:08;0.82;;;0.82;;
33505;SDS011;19843;51.040;13.782;2022-11-04T07:31:36;0.90;;;0.90;;
33505;SDS011;19843;51.040;13.782;2022-11-04T07:34:03;0.80;;;0.80;;
33505;SDS011;19843;51.040;13.782;2022-11-04T07:36:31;0.90;;;0.90;;
33505;SDS011;19843;51.040;13.782;2022-11-04T07:38:59;0.80;;;0.80;;
33505;SDS011;19843;51.040;13.782;2022-11-04T07:41:28;0.75;;;0.75;;
33505;SDS011;19843;51.040;13.782;2022-11-04T07:43:56;0.70;;;0.70;;
33505;SDS011;19843;51.040;13.782;2022-11-04T07:46:24;0.60;;;0.60;;
33505;SDS011;19843;51.040;13.782;2022-11-04T07:48:51;0.50;;;0.50;;
33505;SDS011;19843;51.040;13.782;2022-11-04T07:51:19;0.60;;;0.60;;
33505;SDS011;19843;51.040;13.782;2022-11-04T07:53:47;0.60;;;0.60;;
33505;SDS011;19843;51.040;13.782;2022-11-04T07:56:14;0.60;;;0.60;;
33505;SDS011;19843;51.040;13.782;2022-11-04T07:58:45;0.63;;;0.63;;
33505;SDS011;19843;51.040;13.782;2022-11-04T08:01:14;0.60;;;0.60;;
33505;SDS011;19843;51.040;13.782;2022-11-04T08:03:43;0.60;;;0.60;;
33505;SDS011;19843;51.040;13.782;2022-11-04T08:06:11;0.50;;;0.50;;
33505;SDS011;19843;51.040;13.782;2022-11-04T08:08:40;0.50;;;0.50;;
33505;SDS011;19843;51.040;13.782;2022-11-04T08:11:10;0.50;;;0.50;;
33505;SDS011;19843;51.040;13.782;2022-11-04T08:13:45;0.60;;;0.60;;
33505;SDS011;19843;51.040;13.782;2022-11-04T08:16:14;0.60;;;0.60;;
33505;SDS011;19843;51.040;13.782;2022-11-04T08:18:43;0.50;;;0.50;;
33505;SDS011;19843;51.040;13.782;2022-11-04T08:21:11;0.50;;;0.50;;
33505;SDS011;19843;51.040;13.782;2022-11-04T08:23:39;0.50;;;0.50;;
33505;SDS011;19843;51.040;13.782;2022-11-04T08:26:06;0.60;;;0.60;;
33505;SDS011;19843;51.040;13.782;2022-11-04T08:28:35;0.50;;;0.50;;
33505;SDS011;19843;51.040;13.782;2022-11-04T08:31:06;0.55;;;0.55;;
33505;SDS011;19843;51.040;13.782;2022-11-04T08:33:35;0.50;;;0.50;;
33505;SDS011;19843;51.040;13.782;2022-11-04T08:36:04;0.55;;;0.55;;
33505;SDS011;19843;51.040;13.782;2022-11-04T08:38:34;0.50;;;0.50;;
33505;SDS011;19843;51.040;13.782;2022-11-04T08:41:02;0.50;;;0.50;;
33505;SDS011;19843;51.040;13.782;2022-11-04T08:43:32;0.50;;;0.50;;
33505;SDS011;19843;51.040;13.782;2022-11-04T08:46:00;0.63;;;0.63;;
33505;SDS011;19843;51.040;13.782;2022-11-04T08:48:29;0.60;;;0.60;;
33505;SDS011;19843;51.040;13.782;2022-11-04T08:50:57;0.63;;;0.63;;
33505;SDS011;19843;51.040;13.782;2022-11-04T08:53:25;0.70;;;0.70;;
33505;SDS011;19843;51.040;13.782;2022-11-04T08:55:53;0.60;;;0.60;;
33505;SDS011;19843;51.040;13.782;2022-11-04T08:58:21;0.60;;;0.60;;
33505;SDS011;19843;51.040;13.782;2022-11-04T09:00:49;0.50;;;0.50;;
33505;SDS011;19843;51.040;13.782;2022-11-04T09:03:17;0.50;;;0.50;;
33505;SDS011;19843;51.040;13.782;2022-11-04T09:05:46;0.40;;;0.40;;
33505;SDS011;19843;51.040;13.782;2022-11-04T09:08:14;0.40;;;0.40;;
33505;SDS011;19843;51.040;13.782;2022-11-04T09:10:43;0.50;;;0.50;;
33505;SDS011;19843;51.040;13.782;2022-11-04T09:13:13;0.50;;;0.50;;
33505;SDS011;19843;51.040;13.782;2022-11-04T09:15:42;0.40;;;0.40;;
33505;SDS011;19843;51.040;13.782;2022-11-04T09:18:09;0.40;;;0.40;;
33505;SDS011;19843;51.040;13.782;2022-11-04T09:20:37;0.40;;;0.40;;
33505;SDS011;19843;51.040;13.782;2022-11-04T09:23:08;0.40;;;0.40;;
33505;SDS011;19843;51.040;13.782;2022-11-04T09:25:36;0.40;;;0.40;;
33505;SDS011;19843;51.040;13.782;2022-11-04T09:28:04;0.40;;;0.40;;
33505;SDS011;19843;51.040;13.782;2022-11-04T09:30:31;0.40;;;0.40;;
33505;SDS011;19843;51.040;13.782;2022-11-04T09:32:59;0.40;;;0.40;;
33505;SDS011;19843;51.040;13.782;2022-11-04T09:35:27;0.30;;;0.30;;
33505;SDS011;19843;51.040;13.782;2022-11-04T09:37:54;0.50;;;0.40;;
33505;SDS011;19843;51.040;13.782;2022-11-04T09:40:23;0.40;;;0.40;;
33505;SDS011;19843;51.040;13.782;2022-11-04T09:42:55;0.50;;;0.50;;
33505;SDS011;19843;51.040;13.782;2022-11-04T09:48:06;0.40;;;0.40;;
33505;SDS011;19843;51.040;13.782;2022-11-04T09:50:40;0.52;;;0.52;;
33505;SDS011;19843;51.040;13.782;2022-11-04T09:53:13;0.60;;;0.60;;
33505;SDS011;19843;51.040;13.782;2022-11-04T09:55:48;0.50;;;0.50;;
33505;SDS011;19843;51.040;13.782;2022-11-04T09:58:19;0.50;;;0.50;;
33505;SDS011;19843;51.040;13.782;2022-11-04T10:00:47;0.60;;;0.60;;
33505;SDS011;19843;51.040;13.782;2022-11-04T10:03:22;0.50;;;0.50;;
33505;SDS011;19843;51.040;13.782;2022-11-04T10:06:10;0.60;;;0.60;;
33505;SDS011;19843;51.040;13.782;2022-11-04T10:08:53;0.52;;;0.52;;
33505;SDS011;19843;51.040;13.782;2022-11-04T10:11:33;0.60;;;0.60;;
33505;SDS011;19843;51.040;13.782;2022-11-04T10:14:18;0.60;;;0.60;;
33505;SDS011;19843;51.040;13.782;2022-11-04T10:17:07;1.02;;;0.93;;
33505;SDS011;19843;51.040;13.782;2022-11-04T10:19:51;0.90;;;0.90;;
33505;SDS011;19843;51.040;13.782;2022-11-04T10:22:30;0.75;;;0.70;;
33505;SDS011;19843;51.040;13.782;2022-11-04T10:25:00;0.50;;;0.50;;
33505;SDS011;19843;51.040;13.782;2022-11-04T10:27:37;0.45;;;0.45;;
33505;SDS011;19843;51.040;13.782;2022-11-04T10:30:12;0.40;;;0.40;;
33505;SDS011;19843;51.040;13.782;2022-11-04T10:32:47;0.40;;;0.40;;
33505;SDS011;19843;51.040;13.782;2022-11-04T10:35:27;0.40;;;0.40;;
33505;SDS011;19843;51.040;13.782;2022-11-04T10:38:00;0.40;;;0.40;;
33505;SDS011;19843;51.040;13.782;2022-11-04T10:40:40;0.40;;;0.40;;
33505;SDS011;19843;51.040;13.782;2022-11-04T10:43:14;0.40;;;0.40;;
33505;SDS011;19843;51.040;13.782;2022-11-04T10:45:47;0.50;;;0.50;;
33505;SDS011;19843;51.040;13.782;2022-11-04T10:48:23;0.40;;;0.40;;
33505;SDS011;19843;51.040;13.782;2022-11-04T10:50:56;0.40;;;0.40;;
33505;SDS011;19843;51.040;13.782;2022-11-04T10:53:25;0.50;;;0.50;;
33505;SDS011;19843;51.040;13.782;2022-11-04T10:55:56;0.55;;;0.55;;
33505;SDS011;19843;51.040;13.782;2022-11-04T10:58:30;0.50;;;0.50;;
33505;SDS011;19843;51.040;13.782;2022-11-04T11:01:01;0.50;;;0.50;;
33505;SDS011;19843;51.040;13.782;2022-11-04T11:03:49;0.50;;;0.50;;
33505;SDS011;19843;51.040;13.782;2022-11-04T11:06:23;0.60;;;0.60;;
33505;SDS011;19843;51.040;13.782;2022-11-04T11:08:54;0.60;;;0.60;;
33505;SDS011;19843;51.040;13.782;2022-11-04T11:11:35;1.40;;;1.30;;
33505;SDS011;19843;51.040;13.782;2022-11-04T11:14:15;0.60;;;0.60;;
33505;SDS011;19843;51.040;13.782;2022-11-04T11:16:44;0.60;;;0.60;;
33505;SDS011;19843;51.040;13.782;2022-11-04T11:19:14;0.68;;;0.68;;
33505;SDS011;19843;51.040;13.782;2022-11-04T11:21:44;0.50;;;0.50;;
33505;SDS011;19843;51.040;13.782;2022-11-04T11:24:16;0.60;;;0.60;;
33505;SDS011;19843;51.040;13.782;2022-11-04T11:26:46;0.63;;;0.63;;
33505;SDS011;19843;51.040;13.782;2022-11-04T11:29:22;0.60;;;0.60;;
33505;SDS011;19843;51.040;13.782;2022-11-04T11:31:51;0.70;;;0.70;;
33505;SDS011;19843;51.040;13.782;2022-11-04T11:34:21;0.60;;;0.60;;
33505;SDS011;19843;51.040;13.782;2022-11-04T11:36:52;0.60;;;0.60;;
33505;SDS011;19843;51.040;13.782;2022-11-04T11:39:22;0.60;;;0.60;;
33505;SDS011;19843;51.040;13.782;2022-11-04T11:41:55;0.63;;;0.63;;
33505;SDS011;19843;51.040;13.782;2022-11-04T11:44:27;0.60;;;0.60;;
33505;SDS011;19843;51.040;13.782;2022-11-04T11:46:58;0.60;;;0.60;;
33505;SDS011;19843;51.040;13.782;2022-11-04T11:49:29;0.60;;;0.60;;
33505;SDS011;19843;51.040;13.782;2022-11-04T11:52:15;0.50;;;0.50;;
33505;SDS011;19843;51.040;13.782;2022-11-04T11:54:51;0.40;;;0.40;;
33505;SDS011;19843;51.040;13.782;2022-11-04T11:57:28;0.40;;;0.40;;
33505;SDS011;19843;51.040;13.782;2022-11-04T12:00:04;0.40;;;0.40;;
33505;SDS011;19843;51.040;13.782;2022-11-04T12:02:57;0.50;;;0.50;;
33505;SDS011;19843;51.040;13.782;2022-11-04T12:05:29;0.50;;;0.50;;
33505;SDS011;19843;51.040;13.782;2022-11-04T12:08:30;0.45;;;0.45;;
33505;SDS011;19843;51.040;13.782;2022-11-04T12:14:01;0.50;;;0.50;;
33505;SDS011;19843;51.040;13.782;2022-11-04T12:16:36;0.45;;;0.45;;
33505;SDS011;19843;51.040;13.782;2022-11-04T12:19:14;0.50;;;0.50;;
33505;SDS011;19843;51.040;13.782;2022-11-04T12:21:54;0.40;;;0.40;;
33505;SDS011;19843;51.040;13.782;2022-11-04T12:24:29;0.50;;;0.50;;
33505;SDS011;19843;51.040;13.782;2022-11-04T12:27:06;0.50;;;0.50;;
33505;SDS011;19843;51.040;13.782;2022-11-04T12:29:45;0.50;;;0.50;;
33505;SDS011;19843;51.040;13.782;2022-11-04T12:32:28;0.40;;;0.40;;
33505;SDS011;19843;51.040;13.782;2022-11-04T12:35:09;0.47;;;0.47;;
33505;SDS011;19843;51.040;13.782;2022-11-04T12:37:48;0.40;;;0.40;;
33505;SDS011;19843;51.040;13.782;2022-11-04T12:40:26;0.40;;;0.40;;
33505;SDS011;19843;51.040;13.782;2022-11-04T12:43:03;0.40;;;0.40;;
33505;SDS011;19843;51.040;13.782;2022-11-04T12:45:42;0.40;;;0.40;;
33505;SDS011;19843;51.040;13.782;2022-11-04T12:51:23;0.40;;;0.40;;
33505;SDS011;19843;51.040;13.782;2022-11-04T12:54:05;0.50;;;0.50;;
33505;SDS011;19843;51.040;13.782;2022-11-04T12:56:47;0.50;;;0.50;;
33505;SDS011;19843;51.040;13.782;2022-11-04T12:59:31;0.45;;;0.45;;
33505;SDS011;19843;51.040;13.782;2022-11-04T13:02:12;0.40;;;0.40;;
33505;SDS011;19843;51.040;13.782;2022-11-04T13:04:49;0.40;;;0.40;;
33505;SDS011;19843;51.040;13.782;2022-11-04T13:07:27;0.50;;;0.50;;
33505;SDS011;19843;51.040;13.782;2022-11-04T13:09:58;0.40;;;0.40;;
33505;SDS011;19843;51.040;13.782;2022-11-04T13:12:32;0.40;;;0.40;;
33505;SDS011;19843;51.040;13.782;2022-11-04T13:15:10;0.50;;;0.50;;
33505;SDS011;19843;51.040;13.782;2022-11-04T13:17:42;0.40;;;0.40;;
33505;SDS011;19843;51.040;13.782;2022-11-04T13:20:17;0.40;;;0.40;;
33505;SDS011;19843;51.040;13.782;2022-11-04T13:22:52;0.50;;;0.50;;
33505;SDS011;19843;51.040;13.782;2022-11-04T13:25:33;0.40;;;0.40;;
33505;SDS011;19843;51.040;13.782;2022-11-04T13:28:05;0.40;;;0.40;;
33505;SDS011;19843;51.040;13.782;2022-11-04T13:30:38;0.50;;;0.50;;
33505;SDS011;19843;51.040;13.782;2022-11-04T13:33:12;0.53;;;0.53;;
33505;SDS011;19843;51.040;13.782;2022-11-04T13:35:48;0.50;;;0.50;;
33505;SDS011;19843;51.040;13.782;2022-11-04T13:38:23;0.50;;;0.50;;
33505;SDS011;19843;51.040;13.782;2022-11-04T13:40:58;0.50;;;0.50;;
33505;SDS011;19843;51.040;13.782;2022-11-04T13:43:39;0.50;;;0.50;;
33505;SDS011;19843;51.040;13.782;2022-11-04T13:46:16;0.50;;;0.50;;
33505;SDS011;19843;51.040;13.782;2022-11-04T13:48:51;0.50;;;0.50;;
33505;SDS011;19843;51.040;13.782;2022-11-04T13:51:22;0.50;;;0.50;;
33505;SDS011;19843;51.040;13.782;2022-11-04T13:53:59;0.50;;;0.50;;
33505;SDS011;19843;51.040;13.782;2022-11-04T13:56:28;0.50;;;0.50;;
33505;SDS011;19843;51.040;13.782;2022-11-04T13:59:02;0.50;;;0.50;;
33505;SDS011;19843;51.040;13.782;2022-11-04T14:01:33;0.50;;;0.50;;
33505;SDS011;19843;51.040;13.782;2022-11-04T14:04:04;0.50;;;0.50;;
33505;SDS011;19843;51.040;13.782;2022-11-04T14:06:52;0.50;;;0.50;;
33505;SDS011;19843;51.040;13.782;2022-11-04T14:09:32;0.50;;;0.50;;
33505;SDS011;19843;51.040;13.782;2022-11-04T14:14:54;0.50;;;0.50;;
33505;SDS011;19843;51.040;13.782;2022-11-04T14:20:29;0.50;;;0.50;;
33505;SDS011;19843;51.040;13.782;2022-11-04T14:23:00;0.50;;;0.50;;
33505;SDS011;19843;51.040;13.782;2022-11-04T14:25:29;0.50;;;0.50;;
33505;SDS011;19843;51.040;13.782;2022-11-04T14:28:00;0.50;;;0.50;;
33505;SDS011;19843;51.040;13.782;2022-11-04T14:30:33;0.50;;;0.50;;
33505;SDS011;19843;51.040;13.782;2022-11-04T14:33:05;0.50;;;0.50;;
33505;SDS011;19843;51.040;13.782;2022-11-04T14:35:34;0.50;;;0.50;;
33505;SDS011;19843;51.040;13.782;2022-11-04T14:38:06;0.40;;;0.40;;
33505;SDS011;19843;51.040;13.782;2022-11-04T14:40:50;0.50;;;0.50;;
33505;SDS011;19843;51.040;13.782;2022-11-04T14:43:38;0.50;;;0.50;;
33505;SDS011;19843;51.040;13.782;2022-11-04T14:46:09;0.50;;;0.50;;
33505;SDS011;19843;51.040;13.782;2022-11-04T14:48:41;0.40;;;0.40;;
33505;SDS011;19843;51.040;13.782;2022-11-04T14:51:19;0.50;;;0.50;;
33505;SDS011;19843;51.040;13.782;2022-11-04T14:53:51;0.50;;;0.50;;
33505;SDS011;19843;51.040;13.782;2022-11-04T14:56:22;0.50;;;0.50;;
33505;SDS011;19843;51.040;13.782;2022-11-04T14:58:55;0.50;;;0.50;;
33505;SDS011;19843;51.040;13.782;2022-11-04T15:01:25;0.60;;;0.60;;
33505;SDS011;19843;51.040;13.782;2022-11-04T15:04:03;0.60;;;0.60;;
33505;SDS011;19843;51.040;13.782;2022-11-04T15:06:39;0.50;;;0.50;;
33505;SDS011;19843;51.040;13.782;2022-11-04T15:09:22;0.60;;;0.60;;
33505;SDS011;19843;51.040;13.782;2022-11-04T15:11:54;0.70;;;0.70;;
33505;SDS011;19843;51.040;13.782;2022-11-04T15:14:45;0.70;;;0.70;;
33505;SDS011;19843;51.040;13.782;2022-11-04T15:17:16;0.70;;;0.70;;
33505;SDS011;19843;51.040;13.782;2022-11-04T15:19:47;0.60;;;0.60;;
33505;SDS011;19843;51.040;13.782;2022-11-04T15:22:17;0.70;;;0.70;;
33505;SDS011;19843;51.040;13.782;2022-11-04T15:24:46;0.80;;;0.80;;
33505;SDS011;19843;51.040;13.782;2022-11-04T15:27:16;0.70;;;0.70;;